Time;durP1;ratioP1;P1;durP2;ratioP2;P2;SDS_P1;SDS_P2;PMS_P1;PMS_P2;Temp;Humidity;BMP_temperature;BMP_pressure;BME280_temperature;BME280_humidity;BME280_pressure;Samples;Min_cycle;Max_cycle;Signal;HPM_P1;HPM_P2
2022/11/02 00:01:42;;;;;;;5.10;3.97;;;14.20;53.00;;;;;;20729;6734;306237;-85
2022/11/02 00:04:17;;;;;;;4.33;4.00;;;14.20;53.00;;;;;;20668;6734;305540;-85
2022/11/02 00:06:53;;;;;;;3.37;3.17;;;14.40;52.60;;;;;;20814;6732;117966;-85
2022/11/02 00:09:28;;;;;;;5.00;4.40;;;14.20;52.80;;;;;;20689;6747;333557;-85
2022/11/02 00:12:04;;;;;;;4.60;4.07;;;14.30;53.30;;;;;;20796;6765;119885;-85
2022/11/02 00:14:40;;;;;;;3.77;3.47;;;14.10;53.30;;;;;;20836;6798;117346;-85
2022/11/02 00:17:15;;;;;;;5.37;3.47;;;13.80;53.90;;;;;;20674;6770;118087;-85
2022/11/02 00:19:51;;;;;;;4.37;3.97;;;13.60;54.40;;;;;;20761;6777;121327;-86
2022/11/02 00:22:26;;;;;;;4.33;3.90;;;13.40;54.70;;;;;;20781;6768;117600;-85
2022/11/02 00:25:05;;;;;;;5.10;4.60;;;13.20;54.90;;;;;;20561;6777;308599;-86
2022/11/02 00:27:45;;;;;;;5.97;4.23;;;13.40;54.40;;;;;;20666;6762;117080;-85
2022/11/02 00:30:18;;;;;;;4.17;3.90;;;13.40;54.30;;;;;;20847;6764;117487;-86
2022/11/02 00:33:13;;;;;;;4.87;4.47;;;13.20;54.70;;;;;;20536;6792;335290;-86
2022/11/02 00:35:49;;;;;;;4.50;4.07;;;13.30;55.10;;;;;;20712;6776;117690;-86
2022/11/02 00:38:24;;;;;;;4.50;4.10;;;13.20;54.80;;;;;;20557;6844;118130;-86
2022/11/02 00:41:00;;;;;;;4.70;4.15;;;13.00;55.10;;;;;;20551;6771;282574;-85
2022/11/02 00:43:36;;;;;;;4.47;4.13;;;13.20;55.30;;;;;;20574;6774;310529;-86
2022/11/02 00:46:11;;;;;;;4.93;4.43;;;13.60;54.50;;;;;;20751;6789;116825;-86
2022/11/02 00:48:49;;;;;;;5.00;4.60;;;13.40;54.20;;;;;;20612;6782;306605;-86
2022/11/02 00:51:22;;;;;;;4.93;4.53;;;13.60;54.00;;;;;;20517;6788;314573;-86
2022/11/02 00:53:58;;;;;;;5.17;4.67;;;13.80;53.50;;;;;;20581;6778;277033;-85
2022/11/02 00:56:33;;;;;;;4.50;4.13;;;14.00;53.50;;;;;;20759;6778;117138;-86
2022/11/02 00:59:09;;;;;;;4.37;4.07;;;13.80;53.70;;;;;;20850;6760;117880;-85
2022/11/02 01:01:46;;;;;;;5.07;4.40;;;13.40;54.30;;;;;;20706;6794;117737;-87
2022/11/02 01:04:21;;;;;;;4.67;4.30;;;12.90;55.20;;;;;;20790;6789;117552;-89
2022/11/02 01:06:57;;;;;;;5.40;4.65;;;12.90;55.20;;;;;;20488;6783;309308;-85
2022/11/02 01:09:33;;;;;;;4.37;3.97;;;13.20;55.60;;;;;;20804;6783;117918;-85
2022/11/02 01:12:10;;;;;;;4.90;4.50;;;13.20;55.30;;;;;;20549;6783;335475;-86
2022/11/02 01:14:46;;;;;;;6.00;4.33;;;13.40;55.20;;;;;;20807;6783;116308;-86
2022/11/02 01:17:22;;;;;;;4.90;4.47;;;13.30;54.90;;;;;;20467;6824;313434;-87
2022/11/02 01:20:00;;;;;;;4.73;4.33;;;13.50;54.90;;;;;;20562;6788;286390;-85
2022/11/02 01:22:33;;;;;;;3.97;3.73;;;13.80;54.20;;;;;;20802;6783;119143;-85
2022/11/02 01:25:08;;;;;;;4.00;3.73;;;13.70;54.20;;;;;;20815;6769;118166;-85
2022/11/02 01:27:44;;;;;;;4.75;3.90;;;13.40;54.70;;;;;;20433;6777;338224;-85
2022/11/02 01:30:20;;;;;;;4.13;3.60;;;13.50;54.60;;;;;;20784;6788;117308;-85
2022/11/02 01:32:55;;;;;;;4.07;3.80;;;13.40;54.50;;;;;;20573;6784;337656;-85
2022/11/02 01:35:31;;;;;;;3.50;3.30;;;13.60;54.60;;;;;;20715;6809;118437;-86
2022/11/02 01:38:06;;;;;;;4.90;3.40;;;13.50;54.60;;;;;;20553;6795;119355;-85
2022/11/02 01:40:42;;;;;;;4.25;3.85;;;13.20;55.00;;;;;;20548;6797;307272;-85
2022/11/02 01:43:24;;;;;;;3.80;3.50;;;13.30;54.90;;;;;;20505;6812;301364;-85
2022/11/02 01:46:10;;;;;;;4.10;3.20;;;13.70;54.20;;;;;;20678;6801;121211;-86
2022/11/02 01:49:05;;;;;;;3.87;2.83;;;13.60;54.10;;;;;;20728;6789;118408;-85
2022/11/02 01:51:41;;;;;;;3.93;2.67;;;13.30;54.50;;;;;;20696;6837;121048;-85
2022/11/02 01:54:18;;;;;;;3.57;2.60;;;13.00;55.00;;;;;;20814;6766;117365;-85
2022/11/02 01:56:57;;;;;;;4.23;2.50;;;12.80;55.50;;;;;;20662;6799;120187;-85
2022/11/02 01:59:37;;;;;;;3.00;2.80;;;12.70;56.00;;;;;;20741;6787;117032;-86
2022/11/02 02:02:13;;;;;;;3.90;2.80;;;12.70;55.60;;;;;;20593;6767;280031;-86
2022/11/02 02:04:50;;;;;;;3.30;2.90;;;13.00;56.20;;;;;;20569;6782;292027;-86
2022/11/02 02:07:25;;;;;;;2.83;2.33;;;13.50;54.60;;;;;;20745;6752;119309;-85
2022/11/02 02:10:01;;;;;;;3.08;2.78;;;13.50;54.30;;;;;;20560;6757;279183;-85
2022/11/02 02:12:37;;;;;;;2.53;2.40;;;13.70;54.10;;;;;;20792;6772;117800;-86
2022/11/02 02:15:12;;;;;;;2.50;2.30;;;13.60;53.80;;;;;;20795;6770;117278;-85
2022/11/02 02:17:55;;;;;;;3.50;2.50;;;13.20;54.50;;;;;;20630;6770;118887;-85
2022/11/02 02:20:40;;;;;;;2.73;2.30;;;13.00;55.60;;;;;;20851;6740;117500;-85
2022/11/02 02:23:36;;;;;;;3.37;2.53;;;12.90;54.70;;;;;;20717;6788;117443;-85
2022/11/02 02:26:22;;;;;;;3.07;2.77;;;12.80;55.00;;;;;;20769;6770;117881;-85
2022/11/02 02:29:00;;;;;;;3.50;3.20;;;12.70;55.20;;;;;;20634;6752;336849;-85
2022/11/02 02:31:40;;;;;;;3.17;2.83;;;13.00;54.70;;;;;;20799;6767;68767;-85
2022/11/02 02:34:29;;;;;;;3.07;2.77;;;13.10;54.40;;;;;;20628;6751;306232;-84
2022/11/02 02:37:05;;;;;;;4.53;3.03;;;13.30;54.10;;;;;;20776;6751;116500;-83
2022/11/02 02:39:51;;;;;;;2.70;2.50;;;13.00;54.30;;;;;;20868;6740;150037;-84
2022/11/02 02:42:39;;;;;;;3.57;3.03;;;12.90;54.10;;;;;;20587;6770;321480;-85
2022/11/02 02:45:16;;;;;;;3.57;2.50;;;13.20;54.10;;;;;;20770;6778;117437;-85
2022/11/02 02:47:58;;;;;;;3.10;2.80;;;13.30;54.10;;;;;;20428;6766;316322;-86
2022/11/02 02:50:35;;;;;;;4.03;2.60;;;13.20;54.40;;;;;;20789;6767;117194;-86
2022/11/02 02:53:10;;;;;;;3.20;3.00;;;13.20;54.00;;;;;;20533;6785;310528;-85
2022/11/02 02:55:46;;;;;;;3.00;2.70;;;13.40;53.60;;;;;;20684;6781;118007;-85
2022/11/02 02:58:21;;;;;;;2.73;2.53;;;13.30;53.50;;;;;;20616;6772;118266;-85
2022/11/02 03:00:57;;;;;;;2.90;2.60;;;13.00;53.90;;;;;;20777;6789;117189;-85
2022/11/02 03:03:32;;;;;;;3.03;2.72;;;12.80;54.20;;;;;;20616;6772;277091;-85
2022/11/02 03:06:08;;;;;;;4.17;2.80;;;13.00;54.10;;;;;;20522;6795;307345;-86
2022/11/02 03:08:44;;;;;;;2.40;2.20;;;13.40;53.50;;;;;;20880;6766;117124;-86
2022/11/02 03:11:19;;;;;;;2.60;2.40;;;13.30;53.40;;;;;;20895;6751;117008;-86
2022/11/02 03:14:15;;;;;;;3.72;2.70;;;13.10;53.40;;;;;;20677;6751;343685;-85
2022/11/02 03:16:57;;;;;;;2.90;2.20;;;13.10;53.40;;;;;;20513;6792;122881;-86
2022/11/02 03:20:02;;;;;;;2.97;2.60;;;13.00;53.40;;;;;;20662;6751;303271;-86
2022/11/02 03:22:51;;;;;;;3.47;2.50;;;13.10;53.40;;;;;;20906;6751;117090;-86
2022/11/02 03:25:33;;;;;;;3.17;2.80;;;12.90;53.40;;;;;;20697;6751;280851;-85
2022/11/02 03:28:08;;;;;;;3.33;2.53;;;13.10;53.40;;;;;;20424;6766;312084;-86
2022/11/02 03:30:44;;;;;;;3.60;2.77;;;13.40;53.20;;;;;;20580;6781;307760;-85
2022/11/02 03:33:29;;;;;;;2.83;2.60;;;13.60;52.70;;;;;;20830;6766;117239;-86
2022/11/02 03:36:05;;;;;;;2.80;2.23;;;13.40;52.90;;;;;;20747;6829;119977;-85
2022/11/02 03:38:44;;;;;;;2.80;2.60;;;13.00;53.40;;;;;;20855;6800;117110;-86
2022/11/02 03:41:20;;;;;;;2.40;2.13;;;12.50;54.50;;;;;;20829;6759;121449;-86
2022/11/02 03:43:57;;;;;;;2.50;2.30;;;12.50;54.40;;;;;;20816;6755;116985;-88
2022/11/02 03:46:32;;;;;;;2.93;2.10;;;12.40;55.20;;;;;;20755;6763;117061;-85
2022/11/02 03:49:08;;;;;;;4.40;2.10;;;12.40;55.20;;;;;;20818;6764;117399;-85
2022/11/02 03:51:45;;;;;;;2.50;2.23;;;12.30;55.30;;;;;;20798;6764;117469;-85
2022/11/02 03:54:24;;;;;;;2.50;2.17;;;12.20;55.50;;;;;;20765;6779;117426;-85
2022/11/02 03:57:00;;;;;;;2.87;2.40;;;12.20;55.50;;;;;;20512;6764;309970;-85
2022/11/02 03:59:37;;;;;;;1.80;1.70;;;12.50;55.40;;;;;;20820;6779;121189;-85
2022/11/02 04:02:16;;;;;;;3.87;2.70;;;12.60;55.00;;;;;;20565;6779;336683;-85
2022/11/02 04:04:52;;;;;;;2.87;2.10;;;12.90;54.60;;;;;;20754;6784;121416;-85
2022/11/02 04:07:27;;;;;;;2.57;2.37;;;12.90;54.40;;;;;;20593;6805;117425;-85
2022/11/02 04:10:03;;;;;;;3.30;2.40;;;12.70;54.70;;;;;;20620;6769;277170;-85
2022/11/02 04:15:34;;;;;;;2.80;2.07;;;12.90;54.40;;;;;;20766;6778;117044;-85
2022/11/02 04:21:07;;;;;;;4.93;2.17;;;12.90;54.60;;;;;;20786;6781;116370;-85
2022/11/02 04:26:39;;;;;;;3.77;2.07;;;12.50;55.00;;;;;;20773;6757;122163;-85
2022/11/02 04:29:15;;;;;;;5.83;2.20;;;12.40;54.90;;;;;;20734;6784;117755;-86
2022/11/02 04:31:50;;;;;;;2.80;1.90;;;12.30;55.00;;;;;;20772;6768;117736;-85
2022/11/02 04:34:26;;;;;;;4.20;2.10;;;12.20;55.20;;;;;;20581;6763;277695;-85
2022/11/02 04:38:39;;;;;;;2.43;2.23;;;12.50;55.20;;;;;;20704;6771;117665;-86
2022/11/02 04:39:37;;;;;;;3.53;2.40;;;12.60;54.90;;;;;;20534;6816;342044;-85
2022/11/02 04:42:13;;;;;;;3.30;2.28;;;12.80;54.60;;;;;;20603;6752;277608;-85
2022/11/02 04:44:48;;;;;;;3.37;2.20;;;13.10;54.00;;;;;;20582;6773;278253;-85
2022/11/02 04:47:27;;;;;;;3.87;2.10;;;13.40;53.40;;;;;;20712;6771;117122;-85
2022/11/02 04:49:59;;;;;;;3.23;1.87;;;13.30;53.50;;;;;;20859;6741;117444;-85
2022/11/02 04:52:35;;;;;;;4.00;2.17;;;13.00;54.10;;;;;;20634;6756;306614;-85
2022/11/02 04:55:11;;;;;;;2.07;1.80;;;13.10;53.80;;;;;;20812;6753;117171;-85
2022/11/02 04:57:56;;;;;;;2.67;1.50;;;13.10;53.70;;;;;;20734;6753;117415;-84
2022/11/02 05:00:22;;;;;;;2.70;1.95;;;12.80;54.00;;;;;;20618;6755;338926;-85
2022/11/02 05:02:57;;;;;;;2.33;1.90;;;13.00;53.70;;;;;;20759;6781;117197;-85
2022/11/02 05:05:33;;;;;;;2.53;1.70;;;12.90;53.60;;;;;;20312;6783;287505;-85
2022/11/02 05:08:18;;;;;;;3.15;1.90;;;13.10;53.60;;;;;;20351;6778;311153;-85
2022/11/02 05:10:44;;;;;;;4.00;3.70;;;13.40;52.90;;;;;;20535;6781;307789;-85
2022/11/02 05:13:20;;;;;;;3.67;3.07;;;13.60;52.20;;;;;;20528;6781;314803;-85
2022/11/02 05:15:56;;;;;;;2.50;2.12;;;13.80;51.80;;;;;;20519;6786;277444;-85
2022/11/02 05:18:31;;;;;;;2.27;2.00;;;13.90;51.80;;;;;;20638;6822;117510;-88
2022/11/02 05:21:07;;;;;;;3.70;2.10;;;13.60;52.10;;;;;;20590;6766;307686;-85
2022/11/02 05:23:43;;;;;;;3.67;2.07;;;13.80;51.70;;;;;;20568;6771;307011;-88
2022/11/02 05:26:18;;;;;;;3.13;2.70;;;13.70;51.60;;;;;;20823;6756;121403;-86
2022/11/02 05:28:54;;;;;;;3.40;2.20;;;13.50;51.90;;;;;;20825;6766;120497;-85
2022/11/02 05:31:30;;;;;;;2.45;2.20;;;13.10;52.40;;;;;;20657;6751;277078;-85
2022/11/02 05:34:11;;;;;;;2.70;2.03;;;13.20;52.80;;;;;;20857;6751;120847;-87
2022/11/02 05:36:41;;;;;;;3.17;1.90;;;13.10;52.90;;;;;;20747;6769;123387;-87
2022/11/02 05:39:19;;;;;;;3.53;2.03;;;12.80;53.20;;;;;;20661;6754;293547;-87
2022/11/02 05:41:55;;;;;;;3.17;2.20;;;13.00;53.50;;;;;;20584;6781;306163;-87
2022/11/02 05:44:31;;;;;;;1.90;1.70;;;13.30;52.80;;;;;;20794;6839;116274;-86
2022/11/02 05:47:07;;;;;;;3.20;2.03;;;13.20;52.80;;;;;;20746;6773;117056;-86
2022/11/02 05:49:46;;;;;;;3.78;2.17;;;12.90;53.30;;;;;;20605;6778;324192;-85
2022/11/02 05:52:20;;;;;;;2.65;2.05;;;13.10;53.40;;;;;;20747;6733;310199;-84
2022/11/02 05:54:55;;;;;;;2.17;1.60;;;13.40;52.70;;;;;;20941;6748;70763;-84
2022/11/02 05:57:31;;;;;;;5.10;1.97;;;13.30;52.80;;;;;;20809;6747;119838;-87
2022/11/02 06:00:07;;;;;;;2.47;2.00;;;13.00;53.20;;;;;;20905;6748;120396;-85
2022/11/02 06:02:42;;;;;;;2.33;1.50;;;12.70;53.70;;;;;;20853;6747;118884;-84
2022/11/02 06:05:18;;;;;;;3.37;2.00;;;12.50;54.00;;;;;;20662;6747;305126;-85
2022/11/02 06:07:53;;;;;;;3.57;2.00;;;12.70;53.90;;;;;;20489;6747;312078;-85
2022/11/02 06:10:29;;;;;;;5.30;2.20;;;13.10;53.50;;;;;;20824;6747;120858;-88
2022/11/02 06:13:05;;;;;;;5.75;2.60;;;12.90;53.20;;;;;;20589;6747;306710;-87
2022/11/02 06:15:51;;;;;;;2.63;2.20;;;12.90;53.20;;;;;;20621;6747;277725;-89
2022/11/02 06:18:18;;;;;;;3.97;2.40;;;13.30;52.50;;;;;;20457;6747;308807;-86
2022/11/02 06:20:57;;;;;;;2.30;2.10;;;13.30;52.50;;;;;;20903;6732;120099;-88
2022/11/02 06:23:32;;;;;;;2.60;2.22;;;13.10;52.70;;;;;;20692;6747;311780;-87
2022/11/02 06:26:08;;;;;;;4.80;2.63;;;13.00;53.00;;;;;;20845;6747;118752;-88
2022/11/02 06:28:54;;;;;;;3.00;2.70;;;12.80;53.20;;;;;;20634;6751;277421;-87
2022/11/02 06:31:22;;;;;;;4.23;2.80;;;12.70;53.60;;;;;;20897;6733;117487;-89
2022/11/02 06:34:07;;;;;;;3.50;3.20;;;12.60;53.50;;;;;;20652;6736;277235;-87
2022/11/02 06:36:33;;;;;;;3.28;2.90;;;12.70;53.40;;;;;;20625;6736;307938;-88
2022/11/02 06:39:09;;;;;;;4.13;2.90;;;13.00;53.20;;;;;;20674;6733;312037;-88
2022/11/02 06:41:45;;;;;;;2.97;2.73;;;13.20;52.70;;;;;;20646;6736;305896;-87
2022/11/02 06:44:20;;;;;;;3.00;2.70;;;13.40;52.70;;;;;;20629;6747;276725;-87
2022/11/02 06:46:57;;;;;;;2.10;2.00;;;13.50;53.10;;;;;;20720;6748;117331;-87
2022/11/02 06:49:32;;;;;;;3.13;2.60;;;13.50;53.10;;;;;;20586;6748;277285;-88
2022/11/02 06:52:08;;;;;;;3.07;2.20;;;13.70;52.90;;;;;;20820;6747;118056;-87
2022/11/02 06:54:43;;;;;;;3.73;2.20;;;13.70;52.80;;;;;;20861;6733;121301;-87
2022/11/02 06:57:19;;;;;;;2.40;2.20;;;13.50;52.90;;;;;;20713;6748;117584;-89
2022/11/02 06:59:55;;;;;;;3.72;2.50;;;13.30;53.10;;;;;;20607;6748;325812;-88
2022/11/02 07:02:31;;;;;;;3.07;2.30;;;13.90;51.70;;;;;;20621;6747;306673;-87
2022/11/02 07:05:06;;;;;;;4.07;2.27;;;13.90;51.70;;;;;;20819;6747;117533;-86
2022/11/02 07:07:42;;;;;;;3.00;2.00;;;13.90;51.80;;;;;;20556;6778;119162;-87
2022/11/02 07:10:27;;;;;;;2.10;1.90;;;13.70;52.50;;;;;;20742;6778;122644;-86
2022/11/02 07:12:54;;;;;;;2.92;2.17;;;14.00;52.30;;;;;;20446;6799;337876;-85
2022/11/02 07:15:29;;;;;;;3.10;2.10;;;13.90;52.20;;;;;;20525;6785;277312;-87
2022/11/02 07:18:05;;;;;;;2.90;2.10;;;14.50;51.20;;;;;;20639;6770;118603;-87
2022/11/02 07:20:41;;;;;;;3.95;1.90;;;14.60;51.20;;;;;;20535;6779;311726;-87
2022/11/02 07:23:26;;;;;;;;;;;;;;;;;;;;;
2022/11/02 07:26:03;;;;;;;;;;;;;;;;;;;;;
2022/11/02 07:28:38;;;;;;;2.57;1.90;;;15.50;49.10;;;;;;20424;6790;306755;-88
2022/11/02 07:31:04;;;;;;;3.80;1.87;;;15.70;49.10;;;;;;20803;6780;118110;-89
2022/11/02 07:33:40;;;;;;;2.30;1.50;;;15.60;49.70;;;;;;20707;6832;117166;-87
2022/11/02 07:36:16;;;;;;;2.70;1.97;;;15.40;49.60;;;;;;20430;6832;121486;-88
2022/11/02 07:38:55;;;;;;;4.70;1.90;;;15.20;50.20;;;;;;20711;6787;118115;-88
2022/11/02 07:41:27;;;;;;;3.28;2.10;;;15.00;50.50;;;;;;20467;6801;324119;-88
2022/11/02 07:44:02;;;;;;;2.83;1.33;;;15.30;49.90;;;;;;20636;6809;117778;-89
2022/11/02 07:46:38;;;;;;;2.20;1.70;;;15.40;49.90;;;;;;20471;6801;117231;-88
2022/11/02 07:49:14;;;;;;;4.27;2.03;;;15.30;50.10;;;;;;20731;6809;121096;-89
2022/11/02 07:51:49;;;;;;;3.30;1.90;;;15.20;50.30;;;;;;20544;6778;307960;-88
2022/11/02 07:54:25;;;;;;;3.47;2.00;;;15.40;49.80;;;;;;20529;6779;278735;-88
2022/11/02 07:57:01;;;;;;;2.83;1.90;;;15.90;49.10;;;;;;20678;6768;119247;-88
2022/11/02 07:59:37;;;;;;;3.78;2.00;;;15.90;49.00;;;;;;20556;6766;293825;-88
2022/11/02 08:02:13;;;;;;;4.20;1.90;;;16.00;48.60;;;;;;20821;6767;117184;-89
2022/11/02 08:04:48;;;;;;;3.83;1.90;;;16.00;48.80;;;;;;20815;6751;117588;-89
2022/11/02 08:07:25;;;;;;;2.78;2.22;;;15.90;49.00;;;;;;20497;6751;280851;-88
2022/11/02 08:10:00;;;;;;;2.90;2.30;;;15.90;49.00;;;;;;20552;6766;306762;-89
2022/11/02 08:12:36;;;;;;;2.40;2.20;;;16.30;48.40;;;;;;20776;6772;117242;-90
2022/11/02 08:15:15;;;;;;;3.28;2.40;;;16.10;48.40;;;;;;20640;6739;280933;-89
2022/11/02 08:18:07;;;;;;;3.13;2.57;;;16.30;48.40;;;;;;20622;6769;124744;-90
2022/11/02 08:20:45;;;;;;;3.10;2.60;;;16.20;48.60;;;;;;20442;6815;278206;-88
2022/11/02 08:23:20;;;;;;;2.40;2.20;;;16.70;47.80;;;;;;20597;6757;277735;-88
2022/11/02 08:26:07;;;;;;;;;;;;;;;;;;;;;
2022/11/02 08:28:35;;;;;;;3.83;2.30;;;17.00;47.70;;;;;;20684;6801;117737;-90
2022/11/02 08:31:14;;;;;;;2.30;1.90;;;17.00;47.70;;;;;;20542;6809;117125;-89
2022/11/02 08:33:49;;;;;;;2.37;2.10;;;16.80;48.10;;;;;;20585;6798;121894;-89
2022/11/02 08:36:24;;;;;;;2.10;2.00;;;16.60;48.50;;;;;;20710;6790;118244;-91
2022/11/02 08:39:06;;;;;;;2.23;2.00;;;16.50;48.80;;;;;;20749;6831;117381;-89
2022/11/02 08:41:40;;;;;;;2.53;2.33;;;16.50;49.10;;;;;;20780;6790;117243;-89
2022/11/02 08:44:25;;;;;;;3.13;2.10;;;16.50;49.20;;;;;;20695;6801;118079;-89
2022/11/02 08:46:51;;;;;;;3.78;2.40;;;16.40;49.30;;;;;;20496;6786;279115;-88
2022/11/02 08:49:27;;;;;;;3.17;2.20;;;16.70;48.70;;;;;;20632;6771;281519;-88
2022/11/02 08:52:02;;;;;;;2.47;2.12;;;17.00;48.00;;;;;;20461;6816;337340;-88
2022/11/02 08:54:41;;;;;;;2.50;2.30;;;17.40;47.40;;;;;;20715;6799;118344;-89
2022/11/02 08:57:14;;;;;;;3.23;2.07;;;17.30;47.50;;;;;;20674;6785;117342;-88
2022/11/02 08:59:49;;;;;;;3.72;2.47;;;17.10;48.00;;;;;;20523;6756;306858;-88
2022/11/02 09:02:25;;;;;;;3.50;1.97;;;17.20;47.60;;;;;;20798;6766;117929;-88
2022/11/02 09:05:00;;;;;;;3.80;2.20;;;17.10;47.80;;;;;;20544;6784;280982;-88
2022/11/02 09:07:37;;;;;;;4.90;2.13;;;17.30;47.50;;;;;;20696;6763;118273;-88
2022/11/02 09:10:14;;;;;;;2.63;1.97;;;17.30;47.70;;;;;;20785;6779;116733;-88
2022/11/02 09:12:50;;;;;;;4.00;2.22;;;17.20;48.20;;;;;;20642;6755;336473;-88
2022/11/02 09:15:27;;;;;;;4.63;2.40;;;17.40;47.90;;;;;;20901;6755;117138;-88
2022/11/02 09:18:04;;;;;;;4.93;2.20;;;17.50;47.90;;;;;;20672;6821;117093;-88
2022/11/02 09:20:39;;;;;;;4.40;2.03;;;17.40;48.10;;;;;;20836;6767;117520;-88
2022/11/02 09:23:15;;;;;;;3.67;2.12;;;17.30;48.30;;;;;;20568;6790;315816;-88
2022/11/02 09:25:52;;;;;;;3.10;2.20;;;17.60;47.80;;;;;;20699;6789;119894;-90
2022/11/02 09:28:27;;;;;;;4.67;2.20;;;17.80;47.80;;;;;;20499;6860;121173;-89
2022/11/02 09:31:03;;;;;;;4.12;2.20;;;17.70;47.90;;;;;;20481;6799;308935;-88
2022/11/02 09:33:40;;;;;;;4.50;2.43;;;18.00;47.20;;;;;;20515;6772;281319;-89
2022/11/02 09:36:19;;;;;;;4.47;2.50;;;18.50;46.70;;;;;;20528;6765;277841;-88
2022/11/02 09:39:01;;;;;;;3.62;2.12;;;18.90;45.70;;;;;;20626;6765;278091;-87
2022/11/02 09:41:50;;;;;;;2.20;1.83;;;19.20;45.00;;;;;;20779;6785;117549;-87
2022/11/02 09:44:21;;;;;;;4.23;2.20;;;19.10;45.40;;;;;;19906;6868;117573;-87
2022/11/02 09:46:56;;;;;;;4.17;2.10;;;18.80;46.00;;;;;;20420;6795;308823;-87
2022/11/02 09:49:33;;;;;;;3.93;2.10;;;18.90;45.60;;;;;;20511;6777;312174;-87
2022/11/02 09:52:09;;;;;;;4.40;1.80;;;19.10;45.10;;;;;;20689;6790;117573;-88
2022/11/02 09:54:44;;;;;;;4.77;2.03;;;19.00;45.50;;;;;;20713;6786;117661;-87
2022/11/02 09:57:29;;;;;;;5.63;2.30;;;18.70;45.90;;;;;;20474;6789;278456;-87
2022/11/02 10:00:06;;;;;;;3.10;2.00;;;19.00;45.40;;;;;;20584;6768;310713;-87
2022/11/02 10:02:54;;;;;;;4.23;2.03;;;19.00;45.40;;;;;;20787;6784;117200;-87
2022/11/02 10:05:49;;;;;;;4.77;2.00;;;18.80;45.50;;;;;;20854;6763;117355;-87
2022/11/02 10:08:25;;;;;;;5.10;2.07;;;18.50;46.00;;;;;;20384;6832;316422;-88
2022/11/02 10:11:31;;;;;;;4.77;2.10;;;18.60;45.80;;;;;;20866;6757;116843;-85
2022/11/02 10:14:19;;;;;;;3.17;1.87;;;18.10;46.30;;;;;;20866;6753;120872;-86
2022/11/02 10:17:22;;;;;;;4.80;2.10;;;18.10;46.30;;;;;;20564;6750;308171;-86
2022/11/02 10:19:57;;;;;;;4.03;2.00;;;18.30;46.20;;;;;;20597;6758;277751;-86
2022/11/02 10:22:37;;;;;;;4.13;1.90;;;18.60;45.60;;;;;;20883;6748;118028;-87
2022/11/02 10:25:22;;;;;;;2.47;1.63;;;18.50;45.70;;;;;;20885;6749;118211;-87
2022/11/02 10:27:48;;;;;;;3.20;1.70;;;18.30;46.30;;;;;;20721;6768;117403;-86
2022/11/02 10:30:24;;;;;;;4.30;1.90;;;18.10;47.30;;;;;;20844;6764;117439;-86
2022/11/02 10:32:59;;;;;;;3.62;1.80;;;18.00;47.00;;;;;;20613;6773;306995;-87
2022/11/02 10:35:35;;;;;;;3.20;2.20;;;18.20;46.80;;;;;;20636;6739;306148;-88
2022/11/02 10:38:20;;;;;;;5.57;2.10;;;18.50;46.10;;;;;;20706;6787;117309;-90
2022/11/02 10:41:12;;;;;;;4.25;2.03;;;18.50;46.10;;;;;;20643;6745;319012;-86
2022/11/02 10:44:01;;;;;;;4.03;2.08;;;19.00;45.50;;;;;;20622;6745;336722;-88
2022/11/02 10:47:04;;;;;;;7.87;2.03;;;18.90;45.40;;;;;;20812;6758;116897;-85
2022/11/02 10:49:45;;;;;;;5.03;1.90;;;18.90;46.40;;;;;;20913;6743;116727;-86
2022/11/02 10:52:21;;;;;;;2.83;2.03;;;18.50;46.10;;;;;;20686;6730;275803;-90
2022/11/02 10:54:56;;;;;;;4.33;2.20;;;18.70;46.30;;;;;;20888;6745;117243;-88
2022/11/02 10:57:32;;;;;;;2.10;1.50;;;18.70;46.40;;;;;;20619;6773;117477;-89
2022/11/02 11:00:24;;;;;;;2.57;1.80;;;18.60;46.60;;;;;;20596;6772;306154;-89
2022/11/02 11:03:10;;;;;;;2.53;1.85;;;18.80;46.40;;;;;;20590;6760;277686;-89
2022/11/02 11:06:11;;;;;;;4.67;1.67;;;19.20;45.30;;;;;;20858;6738;118681;-87
2022/11/02 11:08:40;;;;;;;4.67;1.70;;;19.10;45.40;;;;;;20558;6878;121321;-88
2022/11/02 11:11:18;;;;;;;3.03;1.53;;;18.90;46.00;;;;;;20812;6753;117231;-86
2022/11/02 11:13:53;;;;;;;2.30;1.20;;;18.70;46.30;;;;;;20805;6753;122392;-86
2022/11/02 11:16:32;;;;;;;4.33;1.53;;;18.50;46.50;;;;;;20784;6753;117936;-86
2022/11/02 11:19:37;;;;;;;4.10;1.63;;;18.40;46.70;;;;;;20615;6795;117135;-87
2022/11/02 11:22:29;;;;;;;2.97;1.83;;;18.40;47.00;;;;;;20681;6738;315615;-86
2022/11/02 11:25:18;;;;;;;3.42;1.80;;;18.70;46.00;;;;;;20669;6753;338305;-86
2022/11/02 11:27:54;;;;;;;5.43;1.97;;;19.20;45.80;;;;;;20678;6783;120484;-88
2022/11/02 11:30:29;;;;;;;4.40;1.50;;;19.20;45.20;;;;;;20840;6768;117161;-86
2022/11/02 11:33:05;;;;;;;5.70;1.90;;;19.00;45.50;;;;;;20903;6750;117501;-86
2022/11/02 11:35:40;;;;;;;3.50;1.90;;;18.80;45.70;;;;;;20658;6758;305846;-86
2022/11/02 11:38:19;;;;;;;4.37;1.90;;;19.00;45.00;;;;;;20430;6765;337771;-86
2022/11/02 11:40:55;;;;;;;3.83;1.90;;;19.30;44.60;;;;;;20835;6745;118234;-86
2022/11/02 11:43:32;;;;;;;3.93;1.80;;;19.30;44.50;;;;;;20829;6756;117109;-88
2022/11/02 11:46:06;;;;;;;4.67;1.63;;;19.00;44.50;;;;;;20646;6767;308757;-87
2022/11/02 11:48:52;;;;;;;3.63;1.70;;;18.90;43.90;;;;;;20753;6786;117832;-88
2022/11/02 11:51:38;;;;;;;3.27;1.60;;;18.70;44.50;;;;;;20755;6781;118208;-89
2022/11/02 11:54:20;;;;;;;3.13;1.30;;;18.70;44.50;;;;;;20786;6768;117288;-88
2022/11/02 11:56:55;;;;;;;3.90;1.65;;;18.50;44.90;;;;;;20468;6783;310103;-88
2022/11/02 11:59:41;;;;;;;3.33;1.70;;;18.70;44.10;;;;;;20569;6788;279244;-88
2022/11/02 12:02:30;;;;;;;5.10;1.97;;;19.00;43.70;;;;;;20534;6783;322728;-88
2022/11/02 12:05:24;;;;;;;1.93;1.13;;;19.30;43.40;;;;;;20831;6772;116928;-87
2022/11/02 12:07:57;;;;;;;3.20;1.62;;;19.00;43.50;;;;;;20445;6778;340378;-87
2022/11/02 12:10:42;;;;;;;2.37;1.47;;;19.00;43.10;;;;;;20840;6771;116287;-88
2022/11/02 12:13:57;;;;;;;2.93;1.17;;;18.90;43.50;;;;;;20801;6768;117180;-89
2022/11/02 12:17:06;;;;;;;;;;;;;;;;;;;;;
2022/11/02 12:19:32;;;;;;;3.30;1.60;;;18.90;44.10;;;;;;20631;6805;334407;-87
2022/11/02 12:22:25;;;;;;;2.33;1.43;;;19.20;43.50;;;;;;20823;6805;125730;-89
2022/11/02 12:25:21;;;;;;;2.73;1.23;;;19.20;44.10;;;;;;20882;6764;117765;-89
2022/11/02 12:27:57;;;;;;;3.80;1.67;;;18.90;43.90;;;;;;20480;6820;308126;-87
2022/11/02 12:30:35;;;;;;;3.93;1.70;;;19.10;43.40;;;;;;20750;6751;308976;-88
2022/11/02 12:33:11;;;;;;;1.80;1.40;;;19.40;43.00;;;;;;20920;6792;116654;-88
2022/11/02 12:36:13;;;;;;;1.90;1.10;;;19.40;43.00;;;;;;20907;6751;125079;-88
2022/11/02 12:39:13;;;;;;;;;;;;;;;;;;;;;
2022/11/02 12:42:06;;;;;;;3.03;1.30;;;19.30;42.70;;;;;;20912;6795;116125;-88
2022/11/02 12:44:54;;;;;;;4.20;1.60;;;19.20;42.80;;;;;;21012;6738;118191;-88
2022/11/02 12:47:26;;;;;;;2.77;1.50;;;18.90;43.30;;;;;;20861;6738;117328;-88
2022/11/02 12:50:18;;;;;;;4.23;1.23;;;18.70;43.60;;;;;;20887;6753;116665;-87
2022/11/02 12:53:17;;;;;;;4.50;1.80;;;18.60;43.80;;;;;;20914;6753;117517;-88
2022/11/02 12:55:53;;;;;;;4.07;1.70;;;18.50;43.90;;;;;;20630;6768;279439;-87
2022/11/02 12:58:34;;;;;;;4.32;1.87;;;18.80;42.90;;;;;;20467;6842;337253;-88
2022/11/02 13:01:10;;;;;;;2.57;1.43;;;19.20;42.70;;;;;;20794;6786;116771;-89
2022/11/02 13:03:49;;;;;;;2.40;1.50;;;19.10;42.70;;;;;;20835;6753;117678;-88
2022/11/02 13:06:34;;;;;;;2.50;1.40;;;19.00;43.10;;;;;;20834;6749;116907;-88
2022/11/02 13:09:24;;;;;;;2.87;1.10;;;18.80;43.30;;;;;;20618;6738;117592;-87
2022/11/02 13:12:00;;;;;;;2.53;1.30;;;18.60;43.60;;;;;;20351;6812;120516;-89
2022/11/02 13:14:39;;;;;;;3.40;1.60;;;18.50;43.80;;;;;;20682;6807;275310;-89
2022/11/02 13:17:24;;;;;;;1.83;1.30;;;18.80;43.60;;;;;;20599;6752;121478;-88
2022/11/02 13:20:06;;;;;;;4.17;1.40;;;18.80;43.30;;;;;;20912;6753;116393;-89
2022/11/02 13:22:46;;;;;;;2.57;1.60;;;18.70;43.50;;;;;;20587;6757;276084;-89
2022/11/02 13:25:25;;;;;;;3.03;1.93;;;18.90;43.50;;;;;;20646;6770;324422;-90
2022/11/02 13:28:06;;;;;;;2.67;1.90;;;19.30;42.20;;;;;;20466;6768;411506;-89
2022/11/02 13:30:41;;;;;;;2.57;1.40;;;19.60;41.70;;;;;;20714;6768;116002;-89
2022/11/02 13:33:16;;;;;;;3.40;1.47;;;19.50;41.90;;;;;;20926;6764;116267;-89
2022/11/02 13:35:53;;;;;;;1.90;1.33;;;19.20;42.40;;;;;;20889;6794;147670;-89
2022/11/02 13:38:31;;;;;;;2.63;1.47;;;18.90;43.30;;;;;;20688;6753;282666;-90
2022/11/02 13:41:49;;;;;;;;;;;;;;;;;;;;;
2022/11/02 13:44:21;;;;;;;3.70;1.70;;;19.10;42.70;;;;;;20824;6772;116524;-88
2022/11/02 13:47:38;;;;;;;2.57;1.50;;;18.80;42.90;;;;;;20741;6783;116290;-87
2022/11/02 13:50:14;;;;;;;5.37;1.73;;;18.70;43.30;;;;;;20845;6765;117492;-87
2022/11/02 13:52:49;;;;;;;1.87;1.27;;;18.50;43.60;;;;;;20861;6766;117214;-87